F/V Rupella — FUNH — position and weather

sailwx.info

Track history (hours):
 
Tides and Currents Weather Stations Pressure Air Temp Water Temp Dewpoint Dewpoint Depression Visibility Wind Speed Wind Dir Waves Ship Positions

F/V Rupella

Last reported at 2017-Nov-19 07:41 UTC. Time now 2017-Nov-22 16:46 UTC.
Position N 45°54' W 001°33'.

Length 16 m.

Type: Fishing. MMSI: 228958000.

Date/timePositionNaut miles runAvg speedWind from/ knotsBaromVisibWave heightAir tempDewpointWater temp
2017-Nov-19 07:41N 45°54' W 001°33'0 0.0
2017-Nov-19 00:20N 45°54' W 001°33'4 1.4
2017-Nov-18 21:17N 45°52' W 001°38'1 3.5
2017-Nov-18 21:01N 45°52' W 001°37'2 3.2
2017-Nov-18 20:22N 45°54' W 001°36'11 0.3
2017-Nov-17 05:32N 45°55' W 001°20'0 0.0
2017-Nov-17 05:28N 45°55' W 001°20'0 0.0
2017-Nov-17 05:00N 45°55' W 001°20'0 0.0
2017-Nov-17 04:30N 45°55' W 001°20'0 0.0
2017-Nov-17 04:00N 45°55' W 001°20'0 0.0
2017-Nov-17 03:29N 45°55' W 001°20'0 0.0
2017-Nov-17 03:00N 45°55' W 001°20'0 0.0
2017-Nov-17 02:31N 45°55' W 001°20'0 0.0
2017-Nov-17 02:00N 45°55' W 001°20'3 1.2
2017-Nov-16 23:18N 45°54' W 001°24'4 8.6
2017-Nov-16 22:49N 45°55' W 001°30'1 3.7
2017-Nov-16 22:26N 45°56' W 001°31'0 1.1
2017-Nov-16 22:00N 45°57' W 001°32'1 1.9
2017-Nov-16 21:30N 45°57' W 001°33'1 2.2
2017-Nov-16 21:00N 45°58' W 001°34'2 3.2
2017-Nov-16 20:31N 45°59' W 001°36'1 1.8
2017-Nov-16 20:00N 45°60' W 001°36'3 5.4
2017-Nov-16 19:30N 46°01' W 001°40'2 3.6
2017-Nov-16 19:00N 46°01' W 001°42'3 3.3
2017-Nov-16 18:09N 46°03' W 001°45'2 3.5
2017-Nov-16 17:41N 46°05' W 001°46'1 3.4
2017-Nov-16 17:26N 46°06' W 001°47'2 3.2
2017-Nov-16 16:52N 46°07' W 001°49'2 3.3
2017-Nov-16 16:21N 46°07' W 001°51'3 0.7
2017-Nov-16 11:36N 46°04' W 001°50'1 3.4
2017-Nov-16 11:26N 46°04' W 001°49'2 3.1
2017-Nov-16 10:55N 46°02' W 001°49'2 1.9
2017-Nov-16 09:56N 46°02' W 001°47'1 2.2
2017-Nov-16 09:30N 46°03' W 001°47'2 3.4
2017-Nov-16 08:59N 46°03' W 001°50'2 3.4
2017-Nov-16 08:31N 46°03' W 001°52'1 2.3
2017-Nov-16 07:53N 46°01' W 001°53'2 3.4
2017-Nov-16 07:12N 46°01' W 001°49'1 3.5
2017-Nov-16 06:59N 46°01' W 001°48'1 2.6
2017-Nov-16 06:30N 46°01' W 001°46'1 3.0
2017-Nov-16 06:00N 46°01' W 001°44'1 2.8
2017-Nov-16 05:30N 46°03' W 001°45'1 2.8
2017-Nov-16 05:00N 46°03' W 001°47'1 3.0
2017-Nov-16 04:30N 46°04' W 001°49'2 3.3
2017-Nov-16 04:01N 46°05' W 001°50'2 3.3
2017-Nov-16 03:31N 46°06' W 001°52'2 3.2
2017-Nov-16 03:00N 46°07' W 001°53'1 1.9
2017-Nov-16 02:23N 46°07' W 001°55'1 2.9
2017-Nov-16 01:59N 46°06' W 001°55'2 3.3
2017-Nov-16 01:31N 46°05' W 001°53'2 3.1
2017-Nov-16 00:55N 46°03' W 001°53'1 3.1
2017-Nov-16 00:31N 46°02' W 001°54'2 3.1
2017-Nov-16 00:00N 46°02' W 001°56'4 1.1
2017-Nov-15 19:44N 46°01' W 002°02'7 1.0
2017-Nov-15 12:52N 46°02' W 001°53'5 2.5
2017-Nov-15 10:55N 46°03' W 001°46'1 1.7
2017-Nov-15 10:30N 46°03' W 001°46'2 3.3
2017-Nov-15 09:57N 46°03' W 001°48'1 3.3
2017-Nov-15 09:30N 46°03' W 001°50'2 3.3
2017-Nov-15 09:00N 46°02' W 001°52'2 3.3
2017-Nov-15 08:28N 46°02' W 001°55'1 3.2
2017-Nov-15 08:01N 46°02' W 001°57'2 3.2
2017-Nov-15 07:31N 46°02' W 001°59'2 3.2
2017-Nov-15 06:55N 46°03' W 002°02'1 2.2
2017-Nov-15 06:30N 46°03' W 002°03'2 3.1
2017-Nov-15 06:00N 46°02' W 002°01'2 3.5
2017-Nov-15 05:30N 46°02' W 001°58'3 3.6
2017-Nov-15 04:45N 46°02' W 001°54'25 5.0
2017-Nov-14 23:44N 45°55' W 001°20'15 5.4
2017-Nov-14 20:56N 45°56' W 001°42'  
Track history (hours):
 
Tides and Currents Weather Stations Pressure Air Temp Water Temp Dewpoint Dewpoint Depression Visibility Wind Speed Wind Dir Waves Ship Positions

F/V Rupella

Last reported at 2017-Nov-19 07:41 UTC. Time now 2017-Nov-22 16:46 UTC.
Position N 45°54' W 001°33'.

Length 16 m.

Type: Fishing. MMSI: 228958000.

Date/timePositionNaut miles runAvg speedWind from/ knotsBaromVisibWave heightAir tempDewpointWater temp
2017-Nov-19 07:41N 45°54' W 001°33'0 0.0
2017-Nov-19 00:20N 45°54' W 001°33'4 1.4
2017-Nov-18 21:17N 45°52' W 001°38'1 3.5
2017-Nov-18 21:01N 45°52' W 001°37'2 3.2
2017-Nov-18 20:22N 45°54' W 001°36'11 0.3
2017-Nov-17 05:32N 45°55' W 001°20'0 0.0
2017-Nov-17 05:28N 45°55' W 001°20'0 0.0
2017-Nov-17 05:00N 45°55' W 001°20'0 0.0
2017-Nov-17 04:30N 45°55' W 001°20'0 0.0
2017-Nov-17 04:00N 45°55' W 001°20'0 0.0
2017-Nov-17 03:29N 45°55' W 001°20'0 0.0
2017-Nov-17 03:00N 45°55' W 001°20'0 0.0
2017-Nov-17 02:31N 45°55' W 001°20'0 0.0
2017-Nov-17 02:00N 45°55' W 001°20'3 1.2
2017-Nov-16 23:18N 45°54' W 001°24'4 8.6
2017-Nov-16 22:49N 45°55' W 001°30'1 3.7
2017-Nov-16 22:26N 45°56' W 001°31'0 1.1
2017-Nov-16 22:00N 45°57' W 001°32'1 1.9
2017-Nov-16 21:30N 45°57' W 001°33'1 2.2
2017-Nov-16 21:00N 45°58' W 001°34'2 3.2
2017-Nov-16 20:31N 45°59' W 001°36'1 1.8
2017-Nov-16 20:00N 45°60' W 001°36'3 5.4
2017-Nov-16 19:30N 46°01' W 001°40'2 3.6
2017-Nov-16 19:00N 46°01' W 001°42'3 3.3
2017-Nov-16 18:09N 46°03' W 001°45'2 3.5
2017-Nov-16 17:41N 46°05' W 001°46'1 3.4
2017-Nov-16 17:26N 46°06' W 001°47'2 3.2
2017-Nov-16 16:52N 46°07' W 001°49'2 3.3
2017-Nov-16 16:21N 46°07' W 001°51'3 0.7
2017-Nov-16 11:36N 46°04' W 001°50'1 3.4
2017-Nov-16 11:26N 46°04' W 001°49'2 3.1
2017-Nov-16 10:55N 46°02' W 001°49'2 1.9
2017-Nov-16 09:56N 46°02' W 001°47'1 2.2
2017-Nov-16 09:30N 46°03' W 001°47'2 3.4
2017-Nov-16 08:59N 46°03' W 001°50'2 3.4
2017-Nov-16 08:31N 46°03' W 001°52'1 2.3
2017-Nov-16 07:53N 46°01' W 001°53'2 3.4
2017-Nov-16 07:12N 46°01' W 001°49'1 3.5
2017-Nov-16 06:59N 46°01' W 001°48'1 2.6
2017-Nov-16 06:30N 46°01' W 001°46'1 3.0
2017-Nov-16 06:00N 46°01' W 001°44'1 2.8
2017-Nov-16 05:30N 46°03' W 001°45'1 2.8
2017-Nov-16 05:00N 46°03' W 001°47'1 3.0
2017-Nov-16 04:30N 46°04' W 001°49'2 3.3
2017-Nov-16 04:01N 46°05' W 001°50'2 3.3
2017-Nov-16 03:31N 46°06' W 001°52'2 3.2
2017-Nov-16 03:00N 46°07' W 001°53'1 1.9
2017-Nov-16 02:23N 46°07' W 001°55'1 2.9
2017-Nov-16 01:59N 46°06' W 001°55'2 3.3
2017-Nov-16 01:31N 46°05' W 001°53'2 3.1
2017-Nov-16 00:55N 46°03' W 001°53'1 3.1
2017-Nov-16 00:31N 46°02' W 001°54'2 3.1
2017-Nov-16 00:00N 46°02' W 001°56'4 1.1
2017-Nov-15 19:44N 46°01' W 002°02'7 1.0
2017-Nov-15 12:52N 46°02' W 001°53'5 2.5
2017-Nov-15 10:55N 46°03' W 001°46'1 1.7
2017-Nov-15 10:30N 46°03' W 001°46'2 3.3
2017-Nov-15 09:57N 46°03' W 001°48'1 3.3
2017-Nov-15 09:30N 46°03' W 001°50'2 3.3
2017-Nov-15 09:00N 46°02' W 001°52'2 3.3
2017-Nov-15 08:28N 46°02' W 001°55'1 3.2
2017-Nov-15 08:01N 46°02' W 001°57'2 3.2
2017-Nov-15 07:31N 46°02' W 001°59'2 3.2
2017-Nov-15 06:55N 46°03' W 002°02'1 2.2
2017-Nov-15 06:30N 46°03' W 002°03'2 3.1
2017-Nov-15 06:00N 46°02' W 002°01'2 3.5
2017-Nov-15 05:30N 46°02' W 001°58'3 3.6
2017-Nov-15 04:45N 46°02' W 001°54'25 5.0
2017-Nov-14 23:44N 45°55' W 001°20'15 5.4
2017-Nov-14 20:56N 45°56' W 001°42'  

Dump ship's entire track history